Terminal Aerodrome Forecast
Issued by NWS

Home | Current Version | Previous Version | Text Only | Print | Product List | Glossary On
Versions: 1 2 3 4 5 6 7 8 9 10 11 12 13 14 15
000
FTUS44 KTSA 061100
TAFBVO
TAF
KBVO 061138Z 0612/0712 21003KT P6SM SKC
     FM061600 21009G18KT P6SM SKC
     FM070000 21004KT P6SM SKC=

USA.gov is the U.S. government's official web portal to all federal, state and local government web resources and services.